Terminal Aerodrome Forecast
Issued by NWS

Home | Current Version | Previous Version | Text Only | Print | Product List | Glossary On
Versions: 1 2 3 4 5 6 7 8 9 10 11 12 13 14 15 16 17 18
362
FTUS43 KLSX 090529
TAFSUS
TAF
KSUS 090529Z 0906/1006 30013KT 6SM -SN OVC030
      TEMPO 0907/0911 2SM -SN BKN020
     FM091600 31017KT P6SM OVC025
     FM091800 31017KT P6SM BKN035=

USA.gov is the U.S. government's official web portal to all federal, state and local government web resources and services.